Time;durP1;ratioP1;P1;durP2;ratioP2;P2;SDS_P1;SDS_P2;PMS_P1;PMS_P2;Temp;Humidity;BMP_temperature;BMP_pressure;BME280_temperature;BME280_humidity;BME280_pressure;Samples;Min_cycle;Max_cycle;Signal;HPM_P1;HPM_P2
2021/09/20 00:00:12;;;;;;;3.80;2.33;;;12.60;99.90;;;;;;5046810;28;20221;-82
2021/09/20 00:02:38;;;;;;;2.73;1.90;;;12.60;99.90;;;;;;5065707;28;20232;-81
2021/09/20 00:05:07;;;;;;;1.93;1.20;;;12.60;99.90;;;;;;5067344;28;20217;-82
2021/09/20 00:07:35;;;;;;;2.43;2.13;;;12.60;99.90;;;;;;5066496;28;20225;-84
2021/09/20 00:10:01;;;;;;;6.00;3.10;;;12.60;99.90;;;;;;5057531;28;20241;-82
2021/09/20 00:12:26;;;;;;;4.20;3.23;;;12.60;99.90;;;;;;5048863;28;21008;-82
2021/09/20 00:14:52;;;;;;;4.70;2.77;;;12.60;99.90;;;;;;5049199;28;20216;-84
2021/09/20 00:17:18;;;;;;;4.70;2.47;;;12.60;99.90;;;;;;5034199;28;20251;-81
2021/09/20 00:19:44;;;;;;;4.70;2.70;;;12.60;99.90;;;;;;5038840;28;20631;-81
2021/09/20 00:22:10;;;;;;;9.73;2.80;;;12.60;99.90;;;;;;5027543;28;20278;-82
2021/09/20 00:24:35;;;;;;;4.63;2.67;;;12.50;99.90;;;;;;5048357;28;20196;-81
2021/09/20 00:27:01;;;;;;;6.30;2.43;;;12.60;99.90;;;;;;5049062;28;20196;-81
2021/09/20 00:29:27;;;;;;;6.50;2.60;;;12.60;99.90;;;;;;5060740;28;20233;-81
2021/09/20 00:31:53;;;;;;;6.80;3.07;;;12.50;99.90;;;;;;5048268;28;20263;-82
2021/09/20 00:34:18;;;;;;;7.07;2.27;;;12.50;99.90;;;;;;5065179;28;20278;-83
2021/09/20 00:36:44;;;;;;;2.67;2.10;;;12.40;99.90;;;;;;5048437;28;20189;-84
2021/09/20 00:39:10;;;;;;;4.43;2.73;;;12.50;99.90;;;;;;5049299;28;20628;-83
2021/09/20 00:41:36;;;;;;;4.13;2.73;;;12.40;99.90;;;;;;5048243;28;20225;-81
2021/09/20 00:44:02;;;;;;;4.33;2.37;;;12.40;99.90;;;;;;5048915;28;20225;-82
2021/09/20 00:46:28;;;;;;;2.90;1.90;;;12.40;99.90;;;;;;5064659;28;20221;-82
2021/09/20 00:48:54;;;;;;;5.93;3.23;;;12.40;99.90;;;;;;5060266;28;20693;-83
2021/09/20 00:51:20;;;;;;;4.17;1.97;;;12.40;99.90;;;;;;5055025;28;20200;-83
2021/09/20 00:53:45;;;;;;;3.77;2.83;;;12.50;99.90;;;;;;5042898;28;20213;-81
2021/09/20 00:56:12;;;;;;;6.77;2.63;;;12.50;99.90;;;;;;5060227;28;20274;-81
2021/09/20 00:58:38;;;;;;;3.87;2.80;;;12.60;99.90;;;;;;5045609;28;20300;-82
2021/09/20 01:01:04;;;;;;;6.07;3.20;;;12.50;99.90;;;;;;5045353;28;20218;-82
2021/09/20 01:03:30;;;;;;;8.97;2.93;;;12.50;99.90;;;;;;5031638;28;20308;-84
2021/09/20 01:05:56;;;;;;;5.43;2.13;;;12.50;99.90;;;;;;5047687;28;20571;-83
2021/09/20 01:08:21;;;;;;;3.17;2.13;;;12.50;99.90;;;;;;5047756;28;20213;-82
2021/09/20 01:10:47;;;;;;;4.13;2.57;;;12.40;99.90;;;;;;5048576;28;20282;-81
2021/09/20 01:13:13;;;;;;;5.47;2.70;;;12.40;99.90;;;;;;5063159;28;20317;-81
2021/09/20 01:15:39;;;;;;;4.27;2.07;;;12.30;99.90;;;;;;5063081;28;20308;-83
2021/09/20 01:18:04;;;;;;;3.90;2.70;;;12.30;99.90;;;;;;5065158;28;20291;-81
2021/09/20 01:20:30;;;;;;;3.60;2.87;;;12.30;99.90;;;;;;5024367;28;20563;-82
2021/09/20 01:23:04;;;;;;;2.93;2.43;;;12.30;99.90;;;;;;5027242;28;20578;-82
2021/09/20 01:25:30;;;;;;;4.47;2.37;;;12.30;99.90;;;;;;5034122;28;20247;-83
2021/09/20 01:27:57;;;;;;;5.40;2.43;;;12.20;99.90;;;;;;5014043;28;20221;-81
2021/09/20 01:30:23;;;;;;;4.10;1.83;;;12.20;99.90;;;;;;5065339;28;20273;-82
2021/09/20 01:32:49;;;;;;;3.63;2.60;;;12.10;99.90;;;;;;5064976;28;20221;-83
2021/09/20 01:35:23;;;;;;;4.43;2.40;;;12.00;99.90;;;;;;5064051;28;20245;-82
2021/09/20 01:37:49;;;;;;;3.97;2.23;;;11.90;99.90;;;;;;5047276;28;20229;-82
2021/09/20 01:40:15;;;;;;;4.70;2.77;;;11.90;99.90;;;;;;5057208;28;20304;-82
2021/09/20 01:42:42;;;;;;;2.27;1.63;;;11.80;99.90;;;;;;5061921;28;20276;-81
2021/09/20 01:45:10;;;;;;;3.33;2.37;;;11.70;99.90;;;;;;5081060;28;20182;-82
2021/09/20 01:47:36;;;;;;;2.83;1.90;;;11.60;99.90;;;;;;5063519;28;20264;-84
2021/09/20 01:50:03;;;;;;;3.03;2.17;;;11.50;99.90;;;;;;5047495;28;20704;-82
2021/09/20 01:52:29;;;;;;;3.87;2.37;;;11.50;99.90;;;;;;5046999;28;20201;-82
2021/09/20 01:54:55;;;;;;;3.00;2.03;;;11.30;99.90;;;;;;5038236;28;20290;-81
2021/09/20 01:57:23;;;;;;;4.13;2.73;;;11.30;99.90;;;;;;5064091;28;20239;-80
2021/09/20 01:59:52;;;;;;;2.90;2.03;;;11.20;99.90;;;;;;5063392;28;20236;-82
2021/09/20 02:02:18;;;;;;;2.57;1.73;;;11.20;99.90;;;;;;5057087;28;21227;-83
2021/09/20 02:04:44;;;;;;;3.07;2.43;;;11.20;99.90;;;;;;5057681;28;20263;-84
2021/09/20 02:07:10;;;;;;;4.57;2.03;;;11.10;99.90;;;;;;5041300;28;20233;-80
2021/09/20 02:09:36;;;;;;;7.37;2.70;;;11.10;99.90;;;;;;5040644;28;20580;-80
2021/09/20 02:12:02;;;;;;;3.40;2.93;;;11.00;99.90;;;;;;5061012;28;20197;-84
2021/09/20 02:14:28;;;;;;;4.33;2.23;;;11.00;99.90;;;;;;5041872;28;20725;-79
2021/09/20 02:16:54;;;;;;;3.27;2.17;;;10.90;99.90;;;;;;5041777;28;20217;-84
2021/09/20 02:19:20;;;;;;;4.63;2.70;;;10.80;99.90;;;;;;5042694;28;20219;-80
2021/09/20 02:21:46;;;;;;;5.07;2.80;;;10.80;99.90;;;;;;5078275;28;20185;-80
2021/09/20 02:24:12;;;;;;;3.33;2.70;;;10.70;99.90;;;;;;5044161;28;20553;-79
2021/09/20 02:26:38;;;;;;;3.00;2.67;;;10.70;99.90;;;;;;5052723;28;20225;-82
2021/09/20 02:29:05;;;;;;;3.37;2.60;;;10.60;99.90;;;;;;5043429;28;20217;-80
2021/09/20 02:31:31;;;;;;;4.93;2.73;;;10.50;99.90;;;;;;5046021;28;20232;-80
2021/09/20 02:33:57;;;;;;;3.20;2.90;;;10.40;99.90;;;;;;5061502;28;20221;-80
2021/09/20 02:36:23;;;;;;;4.03;3.03;;;10.30;99.90;;;;;;5061224;28;20186;-82
2021/09/20 02:38:49;;;;;;;3.80;2.47;;;10.20;99.90;;;;;;5045952;28;20224;-80
2021/09/20 02:41:15;;;;;;;3.63;2.30;;;10.20;99.90;;;;;;5045852;28;20573;-81
2021/09/20 02:43:41;;;;;;;4.77;3.27;;;10.00;99.90;;;;;;5029354;28;21016;-81
2021/09/20 02:46:08;;;;;;;5.53;3.83;;;9.90;99.90;;;;;;5026271;28;20682;-80
2021/09/20 02:48:33;;;;;;;3.47;2.43;;;9.80;99.90;;;;;;5041838;28;20225;-81
2021/09/20 02:50:59;;;;;;;4.13;2.73;;;9.60;99.90;;;;;;5010310;28;20275;-83
2021/09/20 02:53:25;;;;;;;2.00;1.80;;;9.60;99.90;;;;;;5058153;28;21133;-81
2021/09/20 02:55:51;;;;;;;3.97;3.60;;;9.60;99.90;;;;;;5059667;28;20240;-80
2021/09/20 02:58:17;;;;;;;4.13;2.33;;;9.60;99.90;;;;;;5043395;28;20236;-79
2021/09/20 03:00:43;;;;;;;4.10;2.70;;;9.60;99.90;;;;;;5059990;28;20197;-80
2021/09/20 03:03:08;;;;;;;3.90;2.63;;;9.50;99.90;;;;;;5044502;28;20223;-82
2021/09/20 03:05:35;;;;;;;11.60;2.53;;;9.50;99.90;;;;;;5058319;28;20224;-80
2021/09/20 03:08:02;;;;;;;4.27;2.23;;;9.40;99.90;;;;;;5060237;28;20221;-83
2021/09/20 03:10:28;;;;;;;5.37;2.83;;;9.30;99.90;;;;;;5062562;28;20712;-81
2021/09/20 03:12:53;;;;;;;3.53;2.47;;;9.30;99.90;;;;;;5061213;28;20212;-82
2021/09/20 03:15:19;;;;;;;4.20;2.17;;;9.30;99.90;;;;;;5043939;28;20193;-85
2021/09/20 03:17:45;;;;;;;5.87;2.73;;;9.30;99.90;;;;;;5043834;28;20247;-79
2021/09/20 03:20:12;;;;;;;3.93;3.53;;;9.20;99.90;;;;;;5044188;28;20669;-80
2021/09/20 03:22:38;;;;;;;4.37;2.40;;;9.20;99.90;;;;;;5051220;28;20274;-79
2021/09/20 03:25:05;;;;;;;3.37;2.73;;;9.20;99.90;;;;;;5053500;28;20224;-79
2021/09/20 03:27:31;;;;;;;4.53;2.97;;;9.20;99.90;;;;;;5062134;28;20186;-81
2021/09/20 03:29:57;;;;;;;3.43;2.87;;;9.20;99.90;;;;;;5062272;28;20240;-82
2021/09/20 03:32:23;;;;;;;24.10;3.80;;;9.20;99.90;;;;;;5025567;28;20221;-83
2021/09/20 03:34:48;;;;;;;3.83;2.87;;;9.30;99.90;;;;;;5061226;28;20224;-80
2021/09/20 03:37:14;;;;;;;4.23;3.40;;;9.30;99.90;;;;;;5062709;28;20248;-83
2021/09/20 03:39:41;;;;;;;5.87;3.50;;;9.30;99.90;;;;;;5049317;28;20193;-81
2021/09/20 03:42:07;;;;;;;5.07;2.93;;;9.30;99.90;;;;;;5050323;28;20630;-82
2021/09/20 03:44:33;;;;;;;5.70;3.50;;;9.20;99.90;;;;;;5049767;28;20227;-81
2021/09/20 03:46:59;;;;;;;4.90;3.73;;;9.20;99.90;;;;;;5065789;28;20276;-80
2021/09/20 03:49:25;;;;;;;2.83;2.47;;;9.20;99.90;;;;;;5049371;28;20225;-80
2021/09/20 03:51:51;;;;;;;4.67;2.97;;;9.20;99.90;;;;;;5065955;28;20732;-81
2021/09/20 03:54:17;;;;;;;5.50;3.13;;;9.20;99.90;;;;;;5033751;28;20687;-83
2021/09/20 03:56:42;;;;;;;3.17;2.80;;;9.20;99.90;;;;;;5032638;28;20701;-82
2021/09/20 03:59:08;;;;;;;4.60;2.37;;;9.10;99.90;;;;;;5048845;28;20292;-83
2021/09/20 04:01:34;;;;;;;4.33;2.87;;;9.10;99.90;;;;;;5048854;28;20213;-80
2021/09/20 04:04:00;;;;;;;6.40;3.37;;;9.10;99.90;;;;;;5032581;28;20300;-81
2021/09/20 04:06:25;;;;;;;4.03;2.97;;;9.10;99.90;;;;;;5066368;28;20190;-79
2021/09/20 04:08:53;;;;;;;6.47;3.10;;;9.10;99.90;;;;;;5065586;28;20668;-80
2021/09/20 04:11:19;;;;;;;4.43;3.47;;;9.10;99.90;;;;;;5049362;28;20299;-82
2021/09/20 04:13:45;;;;;;;4.63;3.10;;;9.10;99.90;;;;;;5048829;28;20303;-81
2021/09/20 04:16:10;;;;;;;3.53;2.27;;;9.20;99.90;;;;;;5064618;28;20221;-81
2021/09/20 04:18:36;;;;;;;6.43;4.03;;;9.20;99.90;;;;;;5048840;28;20972;-80
2021/09/20 04:21:02;;;;;;;5.50;3.20;;;9.10;99.90;;;;;;5049509;28;20181;-79
2021/09/20 04:23:28;;;;;;;5.10;3.80;;;9.20;99.90;;;;;;5064120;28;20622;-80
2021/09/20 04:25:54;;;;;;;3.37;2.20;;;9.20;99.90;;;;;;5040505;28;20233;-81
2021/09/20 04:28:20;;;;;;;6.97;3.67;;;9.20;99.90;;;;;;5064364;28;20243;-81
2021/09/20 04:30:46;;;;;;;3.27;2.57;;;9.20;99.90;;;;;;5065493;28;20971;-81
2021/09/20 04:33:14;;;;;;;7.47;3.40;;;9.30;99.90;;;;;;5065063;28;20181;-83
2021/09/20 04:35:40;;;;;;;3.43;2.50;;;9.30;99.90;;;;;;5066242;28;20228;-80
2021/09/20 04:38:07;;;;;;;2.80;2.13;;;9.40;99.90;;;;;;5048168;28;21060;-81
2021/09/20 04:40:34;;;;;;;4.30;3.13;;;9.40;99.90;;;;;;5047566;28;20217;-80
2021/09/20 04:43:01;;;;;;;8.00;3.87;;;9.50;99.90;;;;;;5048344;28;20213;-81
2021/09/20 04:45:27;;;;;;;4.60;3.10;;;9.60;99.90;;;;;;5048584;28;20186;-80
2021/09/20 04:47:53;;;;;;;4.47;3.23;;;9.80;99.90;;;;;;5061539;28;20233;-81
2021/09/20 04:50:19;;;;;;;3.60;2.63;;;9.90;99.90;;;;;;5065878;28;20298;-82
2021/09/20 04:52:45;;;;;;;5.73;3.20;;;10.10;99.90;;;;;;5063860;28;20216;-81
2021/09/20 04:55:11;;;;;;;3.67;3.30;;;10.20;99.90;;;;;;5048444;28;20216;-84
2021/09/20 04:57:36;;;;;;;5.60;3.93;;;10.20;99.90;;;;;;5065833;28;20266;-81
2021/09/20 05:00:07;;;;;;;5.03;3.33;;;10.30;99.90;;;;;;5066178;28;20595;-83
2021/09/20 05:02:33;;;;;;;5.53;4.50;;;10.30;99.90;;;;;;5064394;28;20221;-82
2021/09/20 05:04:59;;;;;;;6.37;3.90;;;10.40;99.90;;;;;;5064802;28;20239;-82
2021/09/20 05:07:25;;;;;;;6.77;3.50;;;10.40;99.90;;;;;;5037149;28;20678;-81
2021/09/20 05:09:52;;;;;;;5.70;3.43;;;10.50;99.90;;;;;;5062160;28;20254;-81
2021/09/20 05:12:19;;;;;;;7.60;3.40;;;10.60;99.90;;;;;;5063138;28;20718;-81
2021/09/20 05:14:45;;;;;;;5.03;4.10;;;10.70;99.90;;;;;;5062565;28;20209;-83
2021/09/20 05:17:12;;;;;;;7.17;3.53;;;10.80;99.90;;;;;;5047640;28;20228;-82
2021/09/20 05:19:38;;;;;;;7.10;3.40;;;10.90;99.90;;;;;;5045758;28;20213;-83
2021/09/20 05:22:03;;;;;;;5.10;2.57;;;10.90;99.90;;;;;;5065119;28;20205;-80
2021/09/20 05:24:29;;;;;;;7.20;4.50;;;10.90;99.90;;;;;;5064838;28;20231;-81
2021/09/20 05:26:55;;;;;;;6.30;4.70;;;11.00;99.90;;;;;;5064615;28;20282;-83
2021/09/20 05:29:21;;;;;;;5.33;3.80;;;11.00;99.90;;;;;;5047920;28;20228;-85
2021/09/20 05:31:47;;;;;;;7.23;4.27;;;11.00;99.90;;;;;;5047148;28;20237;-82
2021/09/20 05:34:12;;;;;;;5.93;3.30;;;11.10;99.90;;;;;;5047503;28;20532;-83
2021/09/20 05:36:38;;;;;;;6.70;5.17;;;11.20;99.90;;;;;;5046804;28;20193;-84
2021/09/20 05:39:04;;;;;;;6.87;4.20;;;11.20;99.90;;;;;;5048025;28;20208;-83
2021/09/20 05:41:30;;;;;;;5.83;3.53;;;11.20;99.90;;;;;;5030475;28;20689;-84
2021/09/20 05:43:56;;;;;;;7.90;3.93;;;11.30;99.90;;;;;;5062389;28;20216;-84
2021/09/20 05:46:23;;;;;;;6.07;4.30;;;11.30;99.90;;;;;;5047092;28;20217;-84
2021/09/20 05:48:49;;;;;;;5.47;4.03;;;11.40;99.90;;;;;;5080466;28;20181;-85
2021/09/20 05:51:15;;;;;;;6.60;4.90;;;11.40;99.90;;;;;;5047286;28;20209;-88
2021/09/20 05:53:41;;;;;;;6.40;3.63;;;11.40;99.90;;;;;;5047825;28;20224;-87
2021/09/20 05:56:07;;;;;;;3.93;3.33;;;11.40;99.90;;;;;;5065463;28;20304;-82
2021/09/20 05:58:33;;;;;;;8.50;5.30;;;11.50;99.90;;;;;;5030780;28;20269;-83
2021/09/20 06:00:59;;;;;;;7.97;3.97;;;11.50;99.90;;;;;;5046196;28;20225;-83
2021/09/20 06:03:27;;;;;;;7.67;4.47;;;11.60;99.90;;;;;;5062690;28;20173;-85
2021/09/20 06:05:52;;;;;;;6.77;4.43;;;11.60;99.90;;;;;;5061106;28;20326;-83
2021/09/20 06:08:18;;;;;;;5.90;3.93;;;11.70;99.90;;;;;;5065130;28;20594;-82
2021/09/20 06:10:44;;;;;;;8.00;4.40;;;11.80;99.90;;;;;;5079343;28;20233;-85
2021/09/20 06:13:10;;;;;;;5.33;4.23;;;11.80;99.90;;;;;;5059646;28;20937;-79
2021/09/20 06:15:37;;;;;;;4.83;3.27;;;11.90;99.90;;;;;;5041747;28;20193;-83
2021/09/20 06:18:04;;;;;;;7.33;3.53;;;11.90;99.90;;;;;;5061917;28;20264;-82
2021/09/20 06:20:30;;;;;;;8.83;4.73;;;11.90;99.90;;;;;;5062843;28;20268;-88
2021/09/20 06:22:57;;;;;;;6.40;4.03;;;12.00;99.90;;;;;;5059607;28;20379;-82
2021/09/20 06:25:24;;;;;;;5.00;3.70;;;12.00;99.90;;;;;;5054594;28;20590;-83
2021/09/20 06:27:51;;;;;;;7.33;4.53;;;12.10;99.90;;;;;;5045782;28;20186;-82
2021/09/20 06:30:18;;;;;;;5.70;4.00;;;12.20;99.90;;;;;;5053494;28;20227;-81
2021/09/20 06:32:44;;;;;;;4.57;3.77;;;12.30;99.90;;;;;;5023923;28;20356;-86
2021/09/20 06:35:11;;;;;;;8.93;3.63;;;12.40;99.90;;;;;;5042673;28;20218;-84
2021/09/20 06:37:37;;;;;;;8.03;3.87;;;12.40;99.90;;;;;;5043529;28;20225;-86
2021/09/20 06:40:05;;;;;;;9.00;3.70;;;12.40;99.90;;;;;;5047950;28;20485;-82
2021/09/20 06:42:31;;;;;;;5.33;3.30;;;12.60;99.90;;;;;;5048055;28;20221;-84
2021/09/20 06:44:56;;;;;;;3.63;3.13;;;12.80;99.90;;;;;;5030865;28;20960;-82
2021/09/20 06:47:22;;;;;;;8.27;4.20;;;13.60;99.90;;;;;;5029887;28;20510;-85
2021/09/20 06:49:49;;;;;;;8.00;3.07;;;14.70;99.90;;;;;;5047764;28;20225;-87
2021/09/20 06:52:15;;;;;;;2.47;2.27;;;15.70;99.90;;;;;;5045959;28;20267;-86
2021/09/20 06:54:42;;;;;;;3.60;2.73;;;16.60;99.90;;;;;;5058747;28;20193;-88
2021/09/20 06:57:07;;;;;;;6.57;2.83;;;16.30;99.90;;;;;;5059388;28;20177;-86
2021/09/20 06:59:33;;;;;;;5.10;3.07;;;16.70;99.90;;;;;;5045899;28;20243;-86
2021/09/20 07:01:59;;;;;;;6.33;3.03;;;17.50;99.90;;;;;;5062461;28;20286;-84
2021/09/20 07:04:25;;;;;;;6.93;3.47;;;17.70;99.90;;;;;;5058018;28;20212;-83
2021/09/20 07:06:51;;;;;;;4.50;2.67;;;17.90;99.90;;;;;;5031321;28;20314;-84
2021/09/20 07:09:17;;;;;;;4.47;2.10;;;18.00;99.90;;;;;;5057523;28;20250;-83
2021/09/20 07:11:43;;;;;;;3.60;2.83;;;18.00;99.90;;;;;;5069514;28;20330;-83
2021/09/20 07:14:09;;;;;;;3.33;2.83;;;18.00;99.90;;;;;;5059472;28;20225;-84
2021/09/20 07:16:35;;;;;;;8.70;3.27;;;18.20;99.90;;;;;;5036302;28;20229;-88
2021/09/20 07:19:01;;;;;;;3.90;2.93;;;18.10;99.90;;;;;;5055752;28;20597;-88
2021/09/20 07:21:27;;;;;;;5.20;3.20;;;18.50;99.90;;;;;;5055829;28;20198;-84
2021/09/20 07:23:55;;;;;;;4.23;2.67;;;18.40;99.90;;;;;;5056236;28;20222;-83
2021/09/20 07:26:23;;;;;;;8.10;3.00;;;18.40;99.90;;;;;;5074374;28;20264;-90
2021/09/20 07:28:49;;;;;;;3.97;3.03;;;18.20;99.90;;;;;;5040379;28;20213;-86
2021/09/20 07:31:15;;;;;;;5.60;2.77;;;18.20;99.90;;;;;;5028016;28;20229;-86
2021/09/20 07:33:41;;;;;;;3.70;3.03;;;17.50;99.90;;;;;;5026904;28;21082;-85
2021/09/20 07:36:07;;;;;;;4.87;3.60;;;16.70;99.90;;;;;;5045001;28;20181;-82
2021/09/20 07:38:34;;;;;;;4.40;3.07;;;16.30;99.90;;;;;;5043274;28;20236;-91
2021/09/20 07:41:00;;;;;;;4.20;2.77;;;16.80;99.90;;;;;;5020265;28;20257;-84
2021/09/20 07:43:26;;;;;;;4.07;2.63;;;17.50;99.90;;;;;;5039975;28;20228;-85
2021/09/20 07:45:52;;;;;;;3.90;2.50;;;17.70;99.90;;;;;;5025137;28;20198;-86
2021/09/20 07:48:17;;;;;;;6.27;3.47;;;17.10;99.90;;;;;;5010340;28;20686;-81
2021/09/20 07:50:43;;;;;;;3.80;2.70;;;16.90;99.90;;;;;;5027185;28;20226;-85
2021/09/20 07:53:09;;;;;;;6.70;2.83;;;16.60;99.90;;;;;;5047399;28;20275;-85
2021/09/20 07:55:35;;;;;;;4.30;2.83;;;16.60;99.90;;;;;;5016140;28;20217;-89
2021/09/20 07:58:06;;;;;;;5.47;3.20;;;16.40;99.90;;;;;;5066776;28;20301;-86
2021/09/20 08:00:33;;;;;;;6.30;3.50;;;15.90;99.90;;;;;;5051525;28;20741;-88
2021/09/20 08:02:59;;;;;;;4.47;2.67;;;15.40;99.90;;;;;;5036156;28;20214;-88
2021/09/20 08:05:25;;;;;;;3.10;2.70;;;15.10;99.90;;;;;;5045451;28;20789;-90
2021/09/20 08:07:51;;;;;;;5.10;2.70;;;15.20;99.90;;;;;;5074305;28;20669;-89
2021/09/20 08:10:17;;;;;;;8.40;3.07;;;15.40;99.90;;;;;;5074842;28;20237;-85
2021/09/20 08:12:43;;;;;;;5.27;2.77;;;15.70;99.90;;;;;;5073668;28;20295;-83
2021/09/20 08:15:10;;;;;;;4.60;3.40;;;15.70;99.90;;;;;;5070335;28;20199;-84
2021/09/20 08:17:36;;;;;;;4.77;2.83;;;15.90;99.90;;;;;;5046976;28;20223;-86
2021/09/20 08:20:06;;;;;;;4.80;2.53;;;15.90;99.90;;;;;;5045176;28;20557;-85
2021/09/20 08:22:32;;;;;;;4.93;2.90;;;16.10;99.90;;;;;;5054008;28;20537;-83
2021/09/20 08:24:59;;;;;;;7.47;2.87;;;16.10;99.90;;;;;;5052791;28;20214;-86
2021/09/20 08:27:26;;;;;;;4.90;2.87;;;16.20;99.90;;;;;;5070414;28;20264;-83
2021/09/20 08:29:52;;;;;;;5.30;3.10;;;16.10;99.90;;;;;;5028558;28;20304;-88
2021/09/20 08:32:19;;;;;;;4.77;3.60;;;16.30;99.90;;;;;;5045724;28;20231;-86
2021/09/20 08:34:46;;;;;;;4.70;3.10;;;16.40;99.90;;;;;;5062614;28;20285;-83
2021/09/20 08:37:12;;;;;;;6.83;3.33;;;16.50;99.90;;;;;;5061417;28;20229;-86
2021/09/20 08:39:38;;;;;;;9.07;3.77;;;16.70;99.90;;;;;;5045648;28;20185;-85
2021/09/20 08:42:04;;;;;;;5.30;2.73;;;16.80;99.90;;;;;;5060576;28;20778;-85
2021/09/20 08:44:31;;;;;;;5.63;3.47;;;17.00;99.90;;;;;;5029544;28;20219;-87
2021/09/20 08:46:57;;;;;;;4.20;3.00;;;17.20;99.90;;;;;;5056270;28;20233;-83
2021/09/20 08:49:26;;;;;;;5.23;3.13;;;17.00;99.90;;;;;;5040588;28;20582;-85
2021/09/20 08:51:55;;;;;;;5.10;2.87;;;17.10;99.90;;;;;;5063609;28;20195;-82
2021/09/20 08:54:26;;;;;;;3.27;2.43;;;17.10;99.90;;;;;;5065793;28;20219;-89
2021/09/20 08:56:53;;;;;;;3.37;3.07;;;17.00;99.90;;;;;;5082960;28;20205;-86
2021/09/20 08:59:19;;;;;;;5.90;4.50;;;17.10;99.90;;;;;;5064772;28;20213;-86
2021/09/20 09:01:54;;;;;;;4.03;2.73;;;17.20;99.90;;;;;;5048321;28;20214;-83
2021/09/20 09:04:27;;;;;;;6.60;3.37;;;17.70;99.90;;;;;;5065223;28;20327;-84
2021/09/20 09:07:01;;;;;;;6.53;3.13;;;18.30;99.90;;;;;;5056818;28;20189;-85
2021/09/20 09:09:29;;;;;;;4.10;3.13;;;18.10;99.90;;;;;;5065919;28;20569;-85
2021/09/20 09:12:19;;;;;;;6.67;2.90;;;17.80;99.90;;;;;;5067170;28;20213;-88
2021/09/20 09:14:56;;;;;;;4.93;2.70;;;17.60;99.90;;;;;;5068262;28;20217;-84
2021/09/20 09:17:30;;;;;;;5.23;3.20;;;17.50;99.90;;;;;;5058182;28;20225;-85
2021/09/20 09:19:58;;;;;;;4.63;2.40;;;17.80;99.90;;;;;;5065602;28;20531;-85
2021/09/20 09:22:38;;;;;;;7.43;3.17;;;17.60;99.90;;;;;;5064173;28;20294;-84
2021/09/20 09:25:07;;;;;;;4.73;3.40;;;17.80;99.90;;;;;;5065430;28;20217;-84
2021/09/20 09:27:37;;;;;;;7.10;3.13;;;18.30;99.90;;;;;;5062866;28;20185;-88
2021/09/20 09:30:09;;;;;;;5.57;2.83;;;18.50;99.90;;;;;;5066041;28;20233;-83
2021/09/20 09:32:36;;;;;;;4.53;3.20;;;18.70;99.90;;;;;;5063702;28;20241;-84
2021/09/20 09:35:04;;;;;;;3.83;2.97;;;19.20;99.90;;;;;;5061074;28;20213;-85
2021/09/20 09:37:38;;;;;;;6.53;3.60;;;19.60;99.90;;;;;;5048331;28;20449;-82
2021/09/20 09:40:13;;;;;;;2.73;2.20;;;20.40;99.90;;;;;;5049212;28;20225;-83
2021/09/20 09:42:40;;;;;;;4.23;2.50;;;21.20;99.90;;;;;;5065774;28;20188;-86
2021/09/20 09:45:19;;;;;;;5.23;2.63;;;21.00;99.90;;;;;;5064663;28;20189;-84
2021/09/20 09:47:47;;;;;;;2.33;2.10;;;20.50;99.90;;;;;;5066345;28;20233;-84
2021/09/20 09:50:21;;;;;;;3.00;2.20;;;20.20;99.90;;;;;;5056006;28;20221;-82
2021/09/20 09:52:53;;;;;;;5.10;2.67;;;20.10;99.90;;;;;;5057738;28;20208;-85
2021/09/20 09:55:20;;;;;;;2.00;1.77;;;20.00;99.90;;;;;;5057387;28;20221;-86
2021/09/20 09:57:49;;;;;;;2.33;2.00;;;19.60;99.90;;;;;;5064942;28;20193;-84
2021/09/20 10:00:18;;;;;;;2.07;1.63;;;19.00;99.90;;;;;;5067741;28;20204;-83
2021/09/20 10:02:47;;;;;;;2.40;1.70;;;19.20;99.90;;;;;;5065223;28;20307;-86
2021/09/20 10:05:13;;;;;;;4.33;2.20;;;20.40;99.90;;;;;;5065854;28;20225;-83
2021/09/20 10:07:43;;;;;;;2.23;1.90;;;20.80;99.90;;;;;;5057018;28;20224;-87
2021/09/20 10:10:18;;;;;;;2.20;1.77;;;20.50;99.90;;;;;;5064071;28;20245;-85
2021/09/20 10:12:46;;;;;;;3.37;1.87;;;21.20;99.90;;;;;;5058817;28;20221;-84
2021/09/20 10:15:15;;;;;;;3.40;2.00;;;21.10;99.90;;;;;;5042774;28;20185;-84
2021/09/20 10:17:41;;;;;;;1.47;1.10;;;20.40;99.90;;;;;;5057138;28;20205;-84
2021/09/20 10:20:11;;;;;;;1.33;1.20;;;20.50;99.90;;;;;;5059402;28;20217;-84
2021/09/20 10:22:37;;;;;;;2.83;1.80;;;20.00;99.90;;;;;;5058196;28;20217;-84
2021/09/20 10:25:06;;;;;;;2.33;1.40;;;20.30;99.90;;;;;;5043786;28;20216;-83
2021/09/20 10:27:32;;;;;;;2.13;1.67;;;19.30;99.90;;;;;;5062257;28;20282;-86
2021/09/20 10:30:06;;;;;;;2.40;1.80;;;19.40;99.90;;;;;;5062681;28;20278;-84
2021/09/20 10:32:32;;;;;;;1.47;1.37;;;18.80;99.90;;;;;;5053949;28;20328;-84
2021/09/20 10:35:34;;;;;;;1.80;1.50;;;18.30;99.90;;;;;;5046070;28;20846;-87
2021/09/20 10:38:04;;;;;;;2.37;1.40;;;18.20;99.90;;;;;;5061871;28;20216;-86
2021/09/20 10:40:31;;;;;;;2.10;1.73;;;18.30;99.90;;;;;;5062794;28;20221;-84
2021/09/20 10:43:05;;;;;;;2.20;2.00;;;18.30;99.90;;;;;;5062494;28;20217;-83
2021/09/20 10:45:43;;;;;;;5.37;1.80;;;18.10;99.90;;;;;;5061796;28;20497;-83
2021/09/20 10:48:17;;;;;;;2.40;1.70;;;18.20;99.90;;;;;;5041770;28;20241;-83
2021/09/20 10:50:55;;;;;;;2.00;1.40;;;18.80;99.90;;;;;;5041520;28;20242;-87
2021/09/20 10:53:34;;;;;;;2.83;1.23;;;19.40;99.90;;;;;;5040353;28;20229;-84
2021/09/20 10:56:03;;;;;;;2.23;1.20;;;19.50;99.90;;;;;;5025754;28;20232;-84
2021/09/20 10:58:39;;;;;;;1.43;1.33;;;19.80;99.90;;;;;;5039049;28;20232;-84
2021/09/20 11:01:10;;;;;;;1.70;1.60;;;19.40;99.90;;;;;;5026662;28;20274;-84
2021/09/20 11:03:41;;;;;;;2.43;1.60;;;18.70;99.90;;;;;;5036340;28;20186;-85
2021/09/20 11:06:43;;;;;;;3.27;1.80;;;19.00;99.90;;;;;;5044247;28;20186;-85
2021/09/20 11:09:09;;;;;;;2.27;1.57;;;19.30;99.90;;;;;;5002705;28;21054;-84
2021/09/20 11:11:41;;;;;;;2.13;1.63;;;19.80;99.90;;;;;;5033307;28;20225;-83
2021/09/20 11:14:10;;;;;;;2.53;1.97;;;19.70;99.90;;;;;;5042131;28;20249;-81
2021/09/20 11:16:56;;;;;;;2.93;1.70;;;20.20;99.90;;;;;;5036148;28;21071;-85
2021/09/20 11:19:28;;;;;;;1.47;1.10;;;19.80;99.90;;;;;;5041425;28;20233;-84
2021/09/20 11:22:06;;;;;;;2.60;1.40;;;19.90;99.90;;;;;;5040997;28;20194;-84
2021/09/20 11:24:31;;;;;;;1.73;1.40;;;20.00;99.90;;;;;;5043197;28;20197;-86
2021/09/20 11:26:58;;;;;;;2.13;1.67;;;20.30;99.90;;;;;;5034821;28;20279;-81
2021/09/20 11:29:25;;;;;;;1.77;1.67;;;19.60;99.90;;;;;;5042967;28;20252;-85
2021/09/20 11:31:54;;;;;;;2.63;1.87;;;19.80;99.90;;;;;;5042065;28;20606;-82
2021/09/20 11:34:28;;;;;;;2.10;1.50;;;19.50;99.90;;;;;;5027439;28;20698;-82
2021/09/20 11:36:53;;;;;;;3.47;1.67;;;19.70;99.90;;;;;;5026212;28;20281;-84
2021/09/20 11:39:20;;;;;;;1.80;1.43;;;19.00;99.90;;;;;;5042456;28;20277;-84
2021/09/20 11:41:56;;;;;;;2.80;1.37;;;19.40;99.90;;;;;;5025168;28;20304;-83
2021/09/20 11:44:29;;;;;;;1.20;1.10;;;19.10;99.90;;;;;;5041993;28;20224;-85
2021/09/20 11:46:55;;;;;;;2.13;1.20;;;18.80;99.90;;;;;;5025554;28;20222;-84
2021/09/20 11:49:21;;;;;;;2.30;1.70;;;18.60;99.90;;;;;;5028667;28;20264;-86
2021/09/20 11:51:52;;;;;;;1.90;1.50;;;18.50;99.90;;;;;;5025543;28;20198;-83
2021/09/20 11:54:37;;;;;;;2.00;1.20;;;17.50;99.90;;;;;;5042617;28;20193;-83
2021/09/20 11:57:33;;;;;;;7.43;1.30;;;17.20;99.90;;;;;;5043561;28;20214;-83
2021/09/20 12:00:03;;;;;;;1.50;1.30;;;17.00;99.90;;;;;;5045644;28;20998;-86
2021/09/20 12:02:33;;;;;;;1.97;1.17;;;17.20;99.90;;;;;;5046101;28;20218;-83
2021/09/20 12:05:00;;;;;;;1.60;1.50;;;18.00;99.90;;;;;;5038430;28;20222;-87
2021/09/20 12:07:45;;;;;;;1.87;1.20;;;18.10;99.90;;;;;;5029329;28;20218;-87
2021/09/20 12:10:12;;;;;;;3.00;1.47;;;18.30;99.90;;;;;;5045629;28;20234;-84
2021/09/20 12:12:39;;;;;;;3.70;1.43;;;18.10;99.90;;;;;;5029373;28;20281;-83
2021/09/20 12:15:13;;;;;;;4.10;1.90;;;18.00;99.90;;;;;;5030385;28;20182;-81
2021/09/20 12:17:58;;;;;;;3.00;1.50;;;18.40;99.90;;;;;;5046696;28;20221;-84
2021/09/20 12:20:32;;;;;;;1.20;1.10;;;18.30;99.90;;;;;;5044973;28;20229;-85
2021/09/20 12:23:00;;;;;;;2.47;1.53;;;17.90;99.90;;;;;;5037133;28;20322;-81
2021/09/20 12:25:33;;;;;;;2.53;1.50;;;17.40;99.90;;;;;;5040884;28;20224;-82
2021/09/20 12:27:59;;;;;;;2.60;1.00;;;17.40;99.90;;;;;;5043932;28;20700;-83
2021/09/20 12:30:28;;;;;;;2.00;1.30;;;17.30;99.90;;;;;;5024469;28;20223;-83
2021/09/20 12:33:12;;;;;;;2.70;1.53;;;17.40;99.90;;;;;;5040031;28;20218;-85
2021/09/20 12:35:40;;;;;;;1.77;1.47;;;17.60;99.90;;;;;;5038731;28;20230;-83
2021/09/20 12:38:17;;;;;;;1.50;1.03;;;17.50;99.90;;;;;;5034672;28;20210;-84
2021/09/20 12:40:43;;;;;;;2.40;1.50;;;17.50;99.90;;;;;;5041950;28;20218;-84
2021/09/20 12:43:14;;;;;;;1.50;1.40;;;17.40;99.90;;;;;;5040895;28;20730;-83
2021/09/20 12:45:44;;;;;;;2.17;1.50;;;17.40;99.90;;;;;;5044837;28;20216;-84
2021/09/20 12:48:11;;;;;;;1.47;1.27;;;17.40;99.90;;;;;;5044697;28;20238;-86
2021/09/20 12:50:48;;;;;;;2.13;1.57;;;17.40;99.90;;;;;;5027702;28;20675;-83